Date,TemperatureHighF,TemperatureAvgF,TemperatureLowF,DewpointHighF,DewpointAvgF,DewpointLowF,HumidityHigh,HumidityAvg,HumidityLow,PressureMaxIn,PressureMinIn,WindSpeedMaxMPH,WindSpeedAvgMPH,GustSpeedMaxMPH,PrecipitationSumIn
2013-1-1,44.0,40.5,36.0,44.0,35.7,24.0,100,85,48,30.04,29.90,1,0,5,0.40
2013-1-2,42.0,38.8,35.0,42.0,38.1,34.0,100,97,90,30.04,29.84,0,0,3,0.27
2013-1-3,40.0,34.6,27.0,37.0,33.4,25.0,100,95,82,30.18,30.00,1,0,3,0.00
2013-1-4,42.0,29.3,23.0,29.0,23.7,21.0,94,80,59,30.25,30.14,0,0,5,0.32
2013-1-5,47.0,33.4,23.0,27.0,22.6,19.0,88,67,40,30.28,30.15,1,0,7,0.32
2013-1-6,48.0,40.0,33.0,40.0,34.8,31.0,94,82,73,30.11,30.00,0,0,6,0.00
2013-1-9,48.0,47.0,46.0,48.0,47.0,46.0,100,100,100,30.40,30.35,0,0,2,0.00
2013-1-10,61.0,50.9,43.0,53.0,48.3,43.0,100,92,73,30.44,30.28,1,0,3,0.01
2013-1-11,55.0,49.4,46.0,55.0,49.4,46.0,100,100,99,30.28,30.09,1,0,3,2.06
2013-1-12,67.0,59.2,55.0,63.0,58.4,55.0,100,97,81,30.13,30.06,1,0,8,1.12
2013-1-13,64.0,59.0,56.0,58.0,56.9,56.0,100,93,81,30.10,30.03,4,1,16,1.06
2013-1-14,59.0,56.3,45.0,59.0,56.3,45.0,100,100,100,30.11,30.00,2,0,8,0.34
2013-1-15,51.0,46.6,43.0,51.0,46.6,43.0,100,100,100,30.10,29.96,0,0,2,1.21
2013-1-16,53.0,48.5,43.0,53.0,48.5,43.0,100,100,100,29.96,29.89,1,0,3,1.12
2013-1-17,51.0,42.6,31.0,51.0,42.6,31.0,100,100,100,30.10,29.69,5,1,12,1.41
2013-1-18,49.0,35.0,27.0,32.0,25.8,22.0,99,72,42,30.40,30.10,3,1,10,0.08
2013-1-19,55.0,36.5,26.0,31.0,27.2,24.0,96,73,32,30.37,30.09,3,0,7,0.04
2013-1-20,59.0,40.5,29.0,38.0,30.1,25.0,88,68,44,30.09,29.97,1,0,3,0.00
2013-1-21,54.0,36.0,26.0,33.0,26.2,17.0,98,71,39,30.02,29.88,3,0,7,0.00
2013-1-22,35.0,26.1,20.0,18.0,9.1,2.0,70,50,27,30.12,29.92,3,1,6,0.00
2013-1-23,45.0,28.5,17.0,23.0,13.8,3.0,70,54,36,30.20,29.98,1,0,3,0.00
2013-1-24,41.0,32.6,22.0,27.0,18.1,7.0,80,56,37,30.32,29.90,4,1,10,0.00
2013-1-25,31.0,24.5,19.0,31.0,18.3,5.0,100,79,50,30.32,29.95,3,0,9,0.05
2013-1-26,40.0,32.7,29.0,34.0,30.4,27.0,100,92,71,30.24,29.99,1,0,4,0.00
2013-1-27,44.0,32.6,25.0,34.0,28.7,25.0,100,86,62,30.39,30.23,2,0,5,0.00
2013-1-28,60.0,45.4,36.0,49.0,40.6,30.0,100,84,67,30.33,30.16,5,1,11,0.00
2013-1-29,68.0,53.0,41.0,57.0,49.1,39.0,100,88,60,30.19,29.99,3,1,11,0.02
2013-1-30,59.0,56.5,43.0,59.0,56.2,43.0,100,99,92,29.97,29.42,7,3,19,8.26
2013-1-31,48.0,35.9,29.0,40.0,23.4,20.0,95,61,46,29.91,29.49,4,1,11,0.96
2013-2-1,38.0,29.0,18.0,32.0,16.9,9.0,81,60,44,30.21,29.82,4,1,10,0.41
2013-2-2,39.0,27.8,17.0,31.0,19.6,11.0,100,74,34,30.21,29.91,4,1,8,0.00
2013-2-3,51.0,32.5,28.0,33.0,26.4,22.0,100,79,39,29.92,29.80,2,0,12,0.01
2013-2-4,48.0,32.7,23.0,26.0,22.3,19.0,87,68,36,30.02,29.88,2,0,10,0.01
2013-2-5,59.0,42.9,30.0,38.0,29.4,24.0,79,61,36,29.93,29.83,2,0,6,0.00
2013-2-6,62.0,44.0,33.0,36.0,29.9,25.0,93,61,32,30.14,29.93,1,0,6,0.00
2013-2-7,42.0,39.0,36.0,40.0,32.6,22.0,100,80,49,30.16,29.92,1,0,3,0.40
2013-2-8,48.0,41.4,34.0,47.0,39.0,29.0,100,91,70,30.03,29.85,4,1,12,0.25
2013-2-9,59.0,38.3,27.0,27.0,21.5,12.0,85,57,18,30.22,30.02,3,0,8,0.00
2013-2-10,49.0,39.1,34.0,41.0,30.4,24.0,100,73,41,30.29,30.10,3,0,8,0.59
2013-2-11,56.0,48.3,41.0,54.0,44.5,29.0,100,89,45,30.10,29.92,2,1,7,9.92
2013-2-12,51.0,43.2,37.0,40.0,32.1,27.0,100,67,44,30.04,29.86,3,0,11,0.03
2013-2-13,50.0,39.0,33.0,45.0,37.3,29.0,100,94,74,29.86,29.55,4,1,12,0.15
2013-2-14,53.0,37.9,28.0,35.0,29.6,27.0,97,75,37,29.97,29.80,2,0,6,0.00
2013-2-15,61.0,39.1,26.0,38.0,30.1,25.0,99,75,31,30.02,29.86,3,0,10,0.00
2013-2-16,36.0,29.4,21.0,32.0,23.8,12.0,97,80,60,29.91,29.75,5,1,19,0.02
2013-2-17,43.0,25.5,18.0,17.0,9.5,6.0,71,51,29,30.11,29.88,4,1,10,9.88
2013-2-18,53.0,34.0,19.0,26.0,19.1,10.0,84,56,35,30.24,30.08,3,0,7,9.88
2013-2-19,58.0,39.1,32.0,45.0,29.2,17.0,100,70,36,30.08,29.78,3,1,14,1.01
2013-2-20,48.0,33.6,25.0,20.0,13.4,10.0,58,44,26,30.03,29.92,3,1,10,0.00
2013-2-21,60.0,38.0,23.0,38.0,18.3,12.0,98,50,16,30.11,29.97,1,0,3,0.27
2013-2-22,37.0,35.0,32.0,37.0,35.0,32.0,100,100,100,30.15,30.00,1,0,3,1.16
2013-2-23,50.0,42.6,36.0,50.0,42.6,36.0,100,100,99,30.01,29.75,0,0,5,0.25
2013-2-24,59.0,43.4,35.0,45.0,35.2,25.0,100,77,39,29.97,29.78,3,0,7,0.01
2013-2-25,44.0,36.0,29.0,31.0,27.1,25.0,97,71,50,30.06,29.91,1,0,3,0.02
2013-2-26,38.0,33.5,31.0,38.0,33.5,31.0,100,100,100,29.95,29.49,1,0,3,1.40
2013-2-27,56.0,41.1,30.0,40.0,33.2,28.0,100,77,45,29.71,29.53,5,0,12,1.28
2013-2-28,47.0,36.4,31.0,34.0,27.2,23.0,90,70,51,29.80,29.64,3,1,7,1.28
2013-3-1,40.0,33.8,30.0,31.0,27.2,25.0,85,77,66,29.83,29.77,4,1,7,0.00
2013-3-2,44.0,32.7,26.0,33.0,27.3,20.0,100,82,50,29.83,29.73,3,1,11,1.28
2013-3-3,41.0,27.9,21.0,24.0,18.6,14.0,86,70,45,29.89,29.80,4,1,9,1.28
2013-3-4,52.0,35.1,21.0,24.0,18.0,13.0,79,53,25,30.02,29.34,2,1,7,0.00
2013-3-5,47.0,41.7,37.0,46.0,36.1,25.0,100,82,54,29.98,29.56,2,0,6,0.71
2013-3-6,40.0,31.1,26.0,31.0,25.6,19.0,92,80,65,30.04,29.59,7,2,16,0.64
2013-3-7,52.0,34.1,26.0,34.0,26.6,22.0,90,76,48,30.18,30.02,4,1,11,0.01
2013-3-8,59.0,37.4,22.0,28.0,23.2,13.0,99,64,24,30.22,30.14,3,1,8,0.00
2013-3-9,64.0,43.1,25.0,31.0,25.9,20.0,86,55,27,30.25,30.14,2,0,6,0.00
2013-3-10,63.0,49.0,36.0,35.0,32.5,30.0,82,56,31,30.20,30.08,3,0,8,0.00
2013-3-11,53.0,48.9,46.0,51.0,46.2,34.0,100,91,59,30.11,29.79,5,1,11,0.77
2013-3-12,57.0,46.6,37.0,50.0,41.6,29.0,100,84,58,29.95,29.71,5,1,10,1.15
2013-3-13,56.0,39.5,28.0,31.0,26.0,19.0,90,61,31,30.04,29.93,4,1,12,0.03
2013-3-14,49.0,34.2,22.0,21.0,17.3,14.0,72,52,26,30.19,30.04,5,1,10,0.00
2013-3-15,71.0,45.5,26.0,41.0,27.3,16.0,76,52,23,30.11,29.87,2,0,11,0.00
2013-3-16,76.0,62.9,52.0,46.0,42.4,41.0,66,49,28,29.88,29.72,4,1,12,0.00
2013-3-17,72.0,59.8,50.0,49.0,45.4,43.0,82,60,37,29.98,29.82,3,0,10,0.00
2013-3-18,50.0,39.6,36.0,45.0,39.1,36.0,100,98,82,30.00,29.80,1,0,3,0.29
2013-3-19,64.0,46.6,35.0,41.0,33.7,19.0,100,68,28,30.01,29.79,5,1,12,1.50
2013-3-20,60.0,42.0,33.0,32.0,15.2,4.0,87,36,16,30.01,29.74,6,1,13,0.01
2013-3-21,47.0,31.2,19.0,31.0,20.9,13.0,100,69,35,29.84,29.68,4,1,11,0.07
2013-3-22,47.0,33.6,23.0,25.0,18.2,12.0,77,55,30,29.93,29.83,3,0,8,0.01
2013-3-23,62.0,43.9,35.0,45.0,35.3,24.0,94,73,52,29.93,29.79,2,0,5,1.50
2013-3-24,44.0,40.1,37.0,42.0,39.7,37.0,100,99,86,29.83,29.46,1,0,6,1.64
2013-3-25,42.0,33.6,28.0,38.0,26.6,20.0,100,77,51,29.79,29.45,3,1,13,0.18
2013-3-26,41.0,31.7,26.0,27.0,23.1,20.0,85,71,55,30.07,29.79,3,1,11,0.11
2013-3-27,50.0,36.3,26.0,30.0,24.6,19.0,81,64,42,30.16,30.07,4,1,12,0.00
2013-3-28,61.0,40.4,28.0,26.0,21.1,14.0,80,52,21,30.20,30.09,3,1,8,0.00
2013-3-29,57.0,40.0,25.0,40.0,26.4,18.0,100,63,25,30.24,30.14,2,0,7,0.02
2013-3-30,62.0,47.7,38.0,46.0,39.9,38.0,100,78,43,30.17,29.99,3,0,8,0.08
2013-3-31,63.0,51.7,45.0,54.0,47.7,-99.9,100,91,58,30.00,29.80,4,0,9,1.66
2013-4-1,70.0,53.1,42.0,52.0,43.5,33.0,100,74,37,29.94,29.80,3,0,7,1.63
2013-4-2,63.0,47.6,34.0,35.0,29.4,22.0,80,53,24,30.08,29.93,2,0,6,1.63
2013-4-3,62.0,47.9,37.0,29.0,22.4,18.0,50,37,24,30.17,30.05,2,0,5,0.00
2013-4-4,46.0,41.6,34.0,35.0,28.9,24.0,98,64,42,30.18,30.14,1,0,3,1.66
2013-4-5,50.0,46.9,44.0,38.0,36.4,35.0,72,66,62,30.01,29.94,1,0,3,0.00
2013-4-6,67.0,50.5,34.0,39.0,34.1,31.0,93,58,28,30.17,30.00,2,0,8,0.00
2013-4-7,67.0,55.4,42.0,45.0,39.8,33.0,76,57,42,30.16,30.04,5,1,14,0.00
2013-4-8,71.0,59.1,45.0,53.0,47.3,42.0,90,67,47,30.12,30.03,5,1,14,0.00
2013-4-9,80.0,65.1,50.0,57.0,52.5,47.0,94,66,42,30.18,30.08,3,0,8,0.00
2013-4-10,84.0,68.3,53.0,58.0,54.3,51.0,92,64,39,30.11,29.94,3,0,11,0.00
2013-4-11,75.0,65.1,57.0,63.0,56.4,53.0,100,75,48,29.97,29.68,4,1,14,0.40
2013-4-12,78.0,61.7,49.0,63.0,53.0,40.0,100,77,39,29.85,29.62,4,1,12,1.69
2013-4-13,75.0,57.2,45.0,44.0,38.0,32.0,76,52,22,30.02,29.82,2,0,7,0.54
2013-4-14,68.0,54.0,40.0,51.0,40.8,34.0,95,63,35,30.07,29.95,2,0,8,0.00
2013-4-15,64.0,54.6,50.0,58.0,53.3,50.0,100,96,80,30.17,29.93,0,0,3,0.21
2013-4-16,78.0,63.1,55.0,61.0,56.6,54.0,100,82,54,30.26,30.16,2,0,6,0.01
2013-4-17,78.0,61.6,56.0,64.0,58.5,55.0,100,91,59,30.24,30.12,2,0,7,0.11
2013-4-18,73.0,62.3,55.0,62.0,57.5,55.0,100,86,57,30.13,29.96,3,0,11,0.28
2013-4-19,63.0,58.1,42.0,63.0,57.6,40.0,100,98,92,29.96,29.73,5,2,19,0.62
2013-4-20,65.0,48.2,34.0,40.0,33.8,27.0,95,61,35,30.22,29.89,4,1,11,0.13
2013-4-21,64.0,47.5,33.0,38.0,33.1,28.0,93,61,34,30.36,30.22,2,0,6,0.13
2013-4-22,65.0,51.1,42.0,41.0,37.7,33.0,85,63,37,30.34,30.15,2,0,7,0.00
2013-4-23,72.0,53.0,34.0,46.0,38.3,31.0,93,61,33,30.22,30.04,2,0,6,0.00
2013-4-24,68.0,57.7,49.0,58.0,50.6,45.0,98,78,60,30.11,29.98,6,1,13,0.01
2013-4-25,75.0,55.3,39.0,52.0,36.5,26.0,94,57,23,30.27,30.05,2,1,6,0.03
2013-4-26,68.0,54.3,38.0,42.0,34.3,29.0,77,50,29,30.37,30.25,2,0,5,0.01
2013-4-27,55.0,50.6,48.0,51.0,47.2,39.0,100,90,54,30.34,30.20,0,0,2,0.79
2013-4-28,50.0,48.1,45.0,50.0,47.0,-99.9,100,100,100,30.21,29.97,1,0,2,2.30
2013-4-29,70.0,56.9,49.0,61.0,53.9,49.0,100,91,71,30.04,29.90,1,0,3,2.32
2013-4-30,74.0,59.8,47.0,59.0,53.9,47.0,100,83,52,30.14,29.95,1,0,3,2.27
2013-5-1,63.0,57.2,54.0,56.0,52.9,51.0,95,86,69,30.25,30.14,1,0,6,0.00
2013-5-2,57.0,53.7,52.0,56.0,53.1,51.0,100,98,92,30.27,30.19,0,0,3,0.08
2013-5-3,55.0,51.9,49.0,53.0,51.1,49.0,100,97,88,30.21,30.04,1,0,6,0.05
2013-5-4,51.0,47.0,45.0,51.0,45.9,42.0,100,96,87,30.04,29.93,2,0,10,0.62
2013-5-5,47.0,45.9,44.0,47.0,45.9,44.0,100,100,100,29.95,29.78,2,0,7,2.80
2013-5-6,63.0,52.5,45.0,52.0,47.6,44.0,100,85,54,29.87,29.74,2,0,6,1.31
2013-5-7,73.0,52.2,39.0,53.0,45.6,39.0,100,82,33,29.93,29.82,1,0,5,0.52
2013-5-8,65.0,55.3,46.0,57.0,52.0,46.0,100,90,70,30.03,29.88,0,0,3,0.00
2013-5-9,75.0,59.7,45.0,60.0,53.7,45.0,100,83,54,30.10,30.00,0,0,3,0.00
2013-5-10,75.0,61.2,50.0,59.0,53.4,-99.9,100,81,55,30.11,29.96,6,1,17,0.00
2013-5-11,71.0,62.3,56.0,64.0,57.7,53.0,100,86,67,29.97,29.83,2,0,6,0.13
2013-5-12,70.0,55.3,47.0,56.0,45.1,-99.9,100,74,42,30.03,29.86,3,1,7,2.73
2013-5-13,70.0,52.0,40.0,39.0,34.0,28.0,78,54,27,30.14,30.03,4,1,10,0.01
2013-5-14,71.0,53.9,36.0,52.0,40.8,32.0,91,64,34,30.21,30.06,2,0,7,0.01
2013-5-15,89.0,66.6,51.0,60.0,54.1,49.0,94,68,37,30.11,29.97,3,0,6,0.00
2013-5-16,77.0,59.6,53.0,59.0,33.8,-99.9,94,71,46,30.07,29.97,0,0,6,0.00
2013-5-17,78.0,64.6,55.0,62.0,50.9,-99.9,99,78,50,30.12,30.03,2,0,6,0.00
2013-5-18,64.0,61.1,58.0,63.0,60.1,56.0,100,97,77,30.13,30.05,0,0,6,1.05
2013-5-19,71.0,63.6,60.0,66.0,62.4,60.0,100,96,85,30.10,30.03,1,0,5,0.16
2013-5-20,79.0,64.8,59.0,67.0,62.3,59.0,100,92,62,30.13,30.04,0,0,2,0.02
2013-5-21,83.0,65.9,57.0,69.0,62.1,57.0,100,89,59,30.09,29.96,0,0,2,0.02
2013-5-22,80.0,66.6,59.0,67.0,62.8,59.0,100,89,57,30.03,29.89,3,0,6,0.55
2013-5-23,76.0,64.5,58.0,69.0,61.1,56.0,100,90,59,29.96,29.86,3,0,6,0.37
2013-5-24,71.0,59.3,53.0,58.0,48.9,41.0,93,71,46,30.19,29.91,6,1,12,0.05
2013-5-25,78.0,58.3,43.0,48.0,42.4,37.0,87,59,29,30.30,30.16,3,0,6,0.00
2013-5-26,74.0,58.3,48.0,53.0,44.3,-99.9,97,68,45,30.27,30.15,1,0,3,2.92
2013-5-27,76.0,63.4,49.0,59.0,54.6,49.0,100,75,51,30.25,30.15,1,0,4,2.92
2013-5-28,80.0,67.2,57.0,62.0,59.0,56.0,98,77,49,30.23,30.16,2,0,5,0.00
2013-5-29,81.0,68.1,59.0,64.0,60.4,58.0,99,78,54,30.24,30.16,1,0,4,0.00
2013-5-30,78.0,69.4,58.0,65.0,61.1,57.0,100,77,57,30.29,30.18,0,0,2,0.00
2013-5-31,77.0,68.1,60.0,64.0,61.0,59.0,100,79,59,30.24,30.13,2,0,5,0.00
2013-6-1,78.0,69.8,63.0,64.0,62.2,60.0,96,78,59,30.16,30.04,2,0,10,0.00
2013-6-2,70.0,64.4,62.0,70.0,62.9,-99.9,100,99,87,30.08,29.93,0,0,3,1.81
2013-6-3,73.0,66.4,61.0,70.0,63.9,60.0,100,92,74,30.01,29.88,0,0,0,1.60
2013-6-4,79.0,67.1,57.0,66.0,62.1,57.0,100,85,59,30.11,29.97,0,0,0,0.65
2013-6-5,74.0,67.2,63.0,67.0,64.6,63.0,100,91,77,30.11,29.97,2,0,4,0.20
2013-6-6,72.0,65.7,61.0,69.0,64.5,61.0,100,96,83,30.02,29.81,0,0,5,0.45
2013-6-7,77.0,66.2,61.0,72.0,65.3,61.0,100,97,77,29.87,28.73,1,0,4,3.20
2013-6-8,79.0,66.8,59.0,70.0,63.7,59.0,100,91,69,30.12,29.85,1,0,5,0.86
2013-6-9,74.0,66.3,61.0,72.0,65.4,61.0,100,97,82,30.17,30.06,3,0,6,1.09
2013-6-10,73.0,66.5,63.0,68.0,64.7,61.0,100,95,69,30.08,29.93,2,0,7,1.94
2013-6-11,85.0,70.0,60.0,70.0,64.9,60.0,100,86,55,30.06,29.95,1,0,3,0.05
2013-6-12,83.0,68.2,60.0,73.0,65.4,60.0,100,92,70,30.08,29.98,0,0,1,0.05
2013-6-13,89.0,72.9,63.0,70.0,65.6,61.0,100,80,42,29.99,29.78,2,0,8,0.00
2013-6-14,80.0,68.2,58.0,64.0,57.5,54.0,94,71,43,30.06,29.85,4,1,8,0.01
2013-6-15,79.0,66.0,52.0,64.0,57.7,51.0,99,77,51,30.17,30.06,1,0,3,0.01
2013-6-16,80.0,69.4,58.0,66.0,61.8,57.0,96,78,54,30.17,30.04,1,0,5,0.00
2013-6-17,76.0,69.4,65.0,72.0,67.5,65.0,100,94,86,30.07,29.89,1,0,4,0.12
2013-6-18,79.0,68.3,63.0,70.0,66.1,61.0,100,93,70,30.01,29.85,1,0,7,0.07
2013-6-19,77.0,67.7,59.0,66.0,62.8,59.0,100,85,64,30.15,29.94,0,0,1,0.04
2013-6-20,76.0,65.7,60.0,66.0,62.5,60.0,100,90,69,30.24,30.13,0,0,2,0.03
2013-6-22,85.0,78.2,72.0,62.0,60.2,55.0,70,55,43,30.28,30.14,0,0,0,0.00
2013-6-23,83.0,67.9,58.0,69.0,64.1,58.0,100,88,61,30.25,30.15,0,0,0,0.27
2013-6-24,79.0,69.6,63.0,74.0,67.0,63.0,100,92,72,30.27,30.15,0,0,5,0.42
2013-6-25,83.0,68.2,61.0,71.0,66.2,61.0,100,94,59,30.20,30.08,0,0,2,0.14
2013-6-26,82.0,69.5,61.0,75.0,67.4,61.0,100,93,68,30.09,29.97,0,0,0,0.36
2013-6-29,72.0,72.0,72.0,64.0,64.0,64.0,77,77,77,29.70,29.70,0,0,0,0.00
2013-7-3,66.0,63.9,61.0,66.0,63.9,61.0,100,100,100,30.25,30.18,0,0,1,3.21
2013-7-4,65.0,63.7,62.0,65.0,63.7,62.0,100,100,100,30.24,30.22,0,0,0,2.84
2013-7-5,66.0,65.8,65.0,66.0,65.8,65.0,100,100,100,30.27,30.23,0,0,1,4.77
2013-7-6,70.0,70.0,70.0,68.0,68.0,68.0,95,95,95,30.19,30.19,0,0,0,0.00
2013-7-9,73.0,73.0,73.0,71.0,71.0,71.0,94,94,94,30.13,30.13,0,0,1,0.00
2013-7-10,66.0,66.0,66.0,66.0,66.0,66.0,100,100,100,30.04,30.04,0,0,3,0.00
2013-7-12,76.0,68.6,64.0,72.0,67.5,64.0,100,97,88,30.01,29.96,0,0,0,0.04
2013-7-13,70.0,69.6,69.0,68.0,68.0,68.0,95,94,93,30.11,30.11,0,0,0,0.00
2013-7-14,68.0,66.5,64.0,68.0,66.5,64.0,100,100,100,30.32,30.22,0,0,7,0.42
2013-7-15,78.0,69.9,64.0,71.0,67.2,64.0,100,92,78,30.37,30.30,0,0,2,0.20
2013-7-16,90.0,74.1,65.0,76.0,69.4,65.0,100,87,59,30.39,30.28,0,0,0,0.05
2013-7-17,85.0,70.8,65.0,76.0,69.1,65.0,100,95,67,30.34,30.22,1,0,3,0.67
2013-7-18,83.0,72.4,64.0,74.0,69.1,64.0,100,90,73,30.27,30.12,0,0,1,0.46
2013-7-19,87.0,73.0,64.0,75.0,69.4,64.0,100,90,59,30.19,30.06,0,0,2,0.00
2013-7-20,84.0,70.8,66.0,74.0,68.2,-99.9,100,94,69,30.10,29.99,0,0,0,0.00
2013-7-21,82.0,69.1,65.0,75.0,68.1,65.0,100,97,71,30.06,29.99,0,0,0,0.90
2013-7-22,81.0,70.1,64.0,74.0,68.1,64.0,100,94,74,30.04,29.89,0,0,6,0.71
2013-7-23,82.0,70.6,61.0,72.0,67.0,61.0,100,89,64,29.96,29.85,0,0,2,0.55
2013-7-24,83.0,71.1,64.0,74.0,67.7,64.0,100,90,65,29.91,29.83,3,0,6,0.02
2013-7-25,84.0,69.3,62.0,71.0,65.8,62.0,100,90,59,30.08,29.89,0,0,0,0.09
2013-7-26,79.0,67.5,59.0,71.0,64.9,59.0,100,92,69,30.14,30.04,1,0,6,0.44
2013-7-27,75.0,69.4,64.0,72.0,67.6,64.0,100,94,79,30.08,29.94,0,0,0,1.12
2013-7-28,82.0,70.3,63.0,71.0,66.2,63.0,100,88,61,30.07,29.94,0,0,2,0.01
2013-7-29,84.0,67.5,58.0,69.0,62.6,58.0,100,86,58,30.22,30.06,0,0,0,0.00
2013-7-30,78.0,68.1,57.0,70.0,64.4,57.0,100,88,70,30.27,30.18,0,0,0,0.00
2013-7-31,71.0,67.6,65.0,70.0,67.3,65.0,100,99,91,30.21,30.01,0,0,2,0.35
2013-8-1,78.0,68.8,64.0,74.0,68.0,64.0,100,97,77,30.02,29.94,0,0,7,0.31
2013-8-2,78.0,68.2,61.0,72.0,66.2,61.0,100,94,74,30.09,29.98,0,0,0,0.01
2013-8-3,82.0,71.3,65.0,72.0,68.0,65.0,100,90,70,30.08,30.03,0,0,0,0.01
2013-8-4,82.0,70.1,62.0,72.0,66.7,62.0,100,90,69,30.09,30.01,2,0,6,0.00
2013-8-5,79.0,69.2,60.0,70.0,65.3,60.0,100,88,70,30.11,30.00,2,0,5,0.10
2013-8-6,80.0,71.1,67.0,72.0,69.0,67.0,100,94,75,30.09,29.99,0,0,0,0.17
2013-8-7,69.0,67.5,66.0,69.0,67.5,66.0,100,100,100,30.12,30.05,0,0,2,1.56
2013-8-8,79.0,69.6,65.0,73.0,68.8,65.0,100,97,80,30.11,30.05,0,0,3,0.14
2013-8-9,80.0,72.1,67.0,74.0,70.1,67.0,100,94,77,30.13,30.06,1,0,3,0.02
2013-8-10,80.0,70.6,66.0,77.0,70.2,66.0,100,99,85,30.18,30.10,1,0,4,0.97
2013-8-11,82.0,69.0,64.0,76.0,68.6,64.0,100,99,79,30.21,30.11,0,0,1,1.13
2013-8-12,84.0,69.4,65.0,75.0,68.4,65.0,100,97,74,30.17,30.02,3,0,6,1.60
2013-8-13,77.0,67.9,65.0,74.0,65.9,-99.9,100,97,83,30.03,29.88,2,0,6,1.60
2013-8-14,77.0,65.3,61.0,69.0,61.2,-99.9,100,90,68,30.09,29.93,1,0,5,0.01
2013-8-15,64.0,55.6,58.0,62.0,43.9,-99.9,100,88,82,30.16,30.07,0,0,2,0.05
2013-8-16,69.0,59.5,56.0,63.0,54.4,-99.9,100,91,75,30.19,30.09,0,0,2,0.03
2013-8-17,65.0,60.7,57.0,62.0,59.5,56.0,100,96,84,30.19,30.13,0,0,3,0.15
2013-8-18,72.0,63.4,60.0,69.0,61.2,-99.9,100,96,83,30.23,30.14,0,0,3,0.23
2013-8-19,71.0,60.7,62.0,69.0,50.3,-99.9,100,98,94,30.23,30.13,0,0,1,6.29
2013-8-20,76.0,66.0,63.0,71.0,64.0,-99.9,100,98,81,30.24,30.14,0,0,1,0.39
2013-8-21,71.0,66.9,65.0,71.0,66.9,65.0,100,100,97,30.27,30.16,0,0,1,0.25
2013-8-22,80.0,68.3,62.0,74.0,67.5,62.0,100,98,78,30.22,30.08,0,0,2,0.47
2013-8-23,83.0,69.0,60.0,74.0,66.6,60.0,100,93,68,30.13,30.02,0,0,2,6.25
2013-8-24,78.0,67.0,62.0,68.0,63.6,58.0,100,90,66,30.33,30.11,0,0,3,6.25
2013-8-25,75.0,62.6,53.0,64.0,56.8,-99.9,100,86,61,30.41,30.29,0,0,0,0.00
2013-8-26,79.0,64.9,53.0,69.0,60.5,53.0,100,87,58,30.36,30.16,1,0,3,0.00
2013-8-27,83.0,64.6,56.0,73.0,62.1,56.0,100,93,68,30.21,30.09,1,0,3,0.00
2013-8-28,85.0,78.7,69.0,75.0,71.5,67.0,95,79,68,30.09,29.43,0,0,0,0.00
2013-8-29,86.0,72.3,64.0,76.0,69.2,64.0,100,91,72,30.05,29.97,0,0,3,0.00
2013-8-30,71.0,68.8,68.0,70.0,68.5,68.0,100,99,94,30.08,30.04,0,0,0,0.00
2013-9-4,74.0,72.1,71.0,69.0,68.4,68.0,91,88,85,30.10,30.07,0,0,0,0.00
2013-9-5,73.0,69.8,68.0,62.0,59.8,58.0,73,71,69,30.14,30.11,0,0,0,0.00
2013-9-7,70.0,69.2,69.0,67.0,67.0,67.0,92,91,89,30.06,30.06,0,0,0,0.00
2013-9-8,78.0,75.7,74.0,70.0,68.9,68.0,85,80,74,30.01,29.98,0,0,0,0.00
2013-9-10,73.0,66.1,60.0,69.0,64.1,60.0,100,93,86,30.25,30.22,0,0,0,0.00
2013-9-11,80.0,72.1,69.0,72.0,69.2,68.0,98,91,76,30.24,30.12,0,0,0,0.00
2013-9-13,78.0,66.6,59.0,66.0,57.9,53.0,100,75,59,29.95,29.84,3,1,8,0.00
2013-9-14,74.0,60.8,51.0,60.0,54.5,50.0,100,81,54,30.12,29.93,1,0,3,0.00
2013-9-15,74.0,59.0,51.0,62.0,54.1,-99.9,100,89,66,30.22,30.12,1,0,6,0.00
2013-9-16,78.0,64.0,53.0,67.0,60.2,53.0,100,89,66,30.19,30.11,0,0,1,0.00
2013-9-17,66.0,62.2,59.0,63.0,57.9,55.0,95,86,73,30.31,30.18,0,0,2,0.00
2013-9-18,59.0,57.7,55.0,58.0,55.4,54.0,98,92,86,30.26,30.20,0,0,0,0.00
2013-9-19,75.0,63.5,58.0,69.0,62.6,58.0,100,97,71,30.21,30.09,0,0,1,0.17
2013-9-20,80.0,65.9,57.0,71.0,63.7,57.0,100,93,69,30.11,29.96,0,0,3,0.04
2013-9-21,65.0,61.7,58.0,65.0,61.7,58.0,100,100,99,29.97,29.72,2,0,8,1.04
2013-9-22,75.0,60.4,53.0,62.0,54.9,-99.9,100,86,59,29.93,29.76,1,0,4,0.10
2013-9-23,71.0,60.3,53.0,62.0,57.1,53.0,100,90,67,30.06,29.92,0,0,2,0.02
2013-9-24,69.0,60.7,54.0,63.0,58.9,54.0,100,94,74,30.08,29.94,0,0,0,0.00
2013-9-25,61.0,58.8,56.0,61.0,58.8,56.0,100,100,100,29.95,29.88,0,0,0,1.20
2013-9-26,71.0,59.7,56.0,66.0,58.7,56.0,100,97,81,30.06,29.88,0,0,0,0.07
2013-9-27,76.0,59.5,49.0,63.0,56.0,49.0,100,90,61,30.19,30.04,0,0,0,0.07
2013-9-28,68.0,59.5,54.0,60.0,56.4,54.0,100,90,68,30.25,30.14,0,0,0,0.00
2013-9-29,72.0,58.0,50.0,59.0,52.4,-99.9,100,86,61,30.19,30.03,0,0,0,0.00
2013-9-30,71.0,59.0,52.0,61.0,56.5,52.0,100,92,68,30.10,30.01,0,0,2,0.00
2013-10-1,65.0,62.0,56.0,61.0,60.2,56.0,100,94,86,30.15,30.09,0,0,0,0.00
2013-10-2,80.0,62.5,52.0,66.0,58.7,52.0,100,89,58,30.19,30.09,1,0,4,0.00
2013-10-3,77.0,64.0,54.0,66.0,60.3,54.0,100,89,64,30.16,30.08,0,0,0,0.00
2013-10-4,79.0,67.9,59.0,65.0,62.8,59.0,100,85,57,30.17,30.11,0,0,0,0.00
2013-10-5,81.0,64.5,54.0,68.0,61.2,54.0,100,91,60,30.18,30.07,0,0,0,0.00
2013-10-6,76.0,63.9,56.0,66.0,61.1,56.0,100,91,66,30.11,29.91,2,0,5,0.03
2013-10-7,64.0,58.7,53.0,64.0,58.1,51.0,100,98,87,30.02,29.83,2,0,3,1.74
2013-10-8,69.0,54.5,46.0,55.0,50.7,46.0,100,88,59,30.20,30.01,0,0,3,0.01
2013-10-9,73.0,54.6,45.0,55.0,49.4,44.0,100,84,54,30.22,30.09,0,0,0,0.01
2013-10-10,74.0,54.8,42.0,59.0,50.7,42.0,100,88,57,30.12,30.01,2,0,7,0.00
2013-10-11,76.0,57.2,45.0,60.0,52.4,45.0,100,86,49,30.06,29.95,2,0,7,0.00
2013-10-12,74.0,59.4,50.0,63.0,56.4,50.0,100,91,67,30.09,29.98,2,0,6,0.00
2013-10-13,70.0,60.5,57.0,63.0,57.7,-99.9,100,94,79,30.22,30.09,0,0,2,0.12
2013-10-14,66.0,59.7,57.0,64.0,59.2,57.0,100,98,90,30.24,30.15,0,0,2,0.15
2013-10-15,66.0,57.9,54.0,60.0,56.8,54.0,100,96,80,30.20,30.05,0,0,0,0.03
2013-10-16,65.0,56.6,50.0,59.0,55.0,50.0,100,95,80,30.09,29.95,0,0,2,0.03
2013-10-17,64.0,59.2,57.0,63.0,59.1,56.0,100,100,95,29.99,29.85,1,0,6,0.05
2013-10-18,68.0,55.0,46.0,57.0,52.5,46.0,100,92,65,30.02,29.91,1,0,2,0.01
2013-10-19,61.0,54.0,48.0,55.0,51.7,47.0,100,92,73,29.96,29.84,0,0,0,0.00
2013-10-20,67.0,49.2,40.0,49.0,42.7,-99.9,100,83,50,30.06,29.92,0,0,3,0.00
2013-10-21,66.0,48.7,37.0,53.0,46.0,37.0,100,92,59,30.11,29.98,3,0,6,0.00
2013-10-22,65.0,55.3,50.0,55.0,52.0,49.0,100,90,68,30.00,29.79,0,0,1,0.01
2013-10-23,55.0,44.4,36.0,50.0,40.6,30.0,100,88,55,29.99,29.72,4,1,8,0.01
2013-10-24,59.0,41.7,30.0,41.0,34.8,29.0,99,78,50,30.09,29.97,2,0,5,0.00
2013-10-25,51.0,38.8,31.0,37.0,29.4,25.0,90,70,48,30.28,30.09,3,1,8,0.00
2013-10-26,56.0,37.7,24.0,38.0,30.8,24.0,100,79,41,30.27,30.00,2,0,6,0.00
2013-10-27,63.0,49.3,37.0,51.0,42.5,-99.9,100,81,59,30.09,30.00,1,0,3,0.00
2013-10-28,59.0,51.2,46.0,57.0,48.9,-99.9,100,97,86,30.22,30.07,1,0,2,0.07
2013-10-29,66.0,53.8,45.0,54.0,50.4,45.0,100,89,59,30.33,30.21,0,0,2,0.01
2013-10-30,73.0,59.7,51.0,59.0,54.8,51.0,100,85,58,30.27,30.15,0,0,4,0.01
2013-10-31,62.0,58.5,54.0,60.0,56.0,53.0,100,92,76,30.18,29.87,3,1,12,0.05
2013-11-1,76.0,61.2,54.0,60.0,57.9,51.0,100,90,51,29.87,29.64,3,0,14,0.18
2013-11-2,62.0,49.6,42.0,52.0,42.7,36.0,100,78,49,29.97,29.74,3,0,10,0.01
2013-11-3,61.0,45.3,39.0,41.0,35.6,-99.9,92,72,46,30.30,29.94,2,0,7,0.00
2013-11-4,56.0,41.8,31.0,35.0,33.3,31.0,100,75,43,30.43,30.30,2,0,3,0.00
2013-11-5,58.0,42.9,33.0,39.0,34.0,30.0,94,73,38,30.47,30.35,1,0,3,0.00
2013-11-6,64.0,51.4,42.0,53.0,48.6,39.0,100,91,67,30.37,30.11,1,0,3,0.03
2013-11-7,64.0,49.4,38.0,56.0,45.7,30.0,100,88,60,30.11,29.98,3,0,10,0.03
2013-11-8,57.0,39.2,33.0,30.0,26.3,22.0,79,62,27,30.23,30.09,2,0,10,0.01
2013-11-9,54.0,39.4,26.0,35.0,28.2,-99.9,94,68,40,30.28,30.14,3,0,8,0.00
2013-11-10,70.0,47.4,38.0,39.0,33.0,29.0,78,59,27,30.22,30.11,2,0,9,0.00
2013-11-11,62.0,45.0,33.0,34.0,30.1,25.0,79,57,34,30.27,30.10,1,0,5,0.00
2013-11-12,55.0,37.9,23.0,39.0,29.6,14.0,87,72,50,30.36,30.01,4,1,12,0.00
2013-11-13,46.0,29.0,20.0,19.0,14.5,10.0,78,57,27,30.42,30.32,2,0,10,0.00
2013-11-14,59.0,35.8,20.0,25.0,19.6,16.0,86,57,21,30.37,30.21,1,0,5,0.00
2013-11-15,48.0,40.8,31.0,47.0,34.2,18.0,100,79,49,30.24,30.13,1,0,3,0.18
2013-11-16,62.0,50.5,46.0,58.0,48.9,-99.9,100,97,81,30.22,30.12,1,0,5,0.16
2013-11-17,57.0,54.5,52.0,57.0,54.5,52.0,100,100,97,30.16,29.87,2,0,5,0.46
2013-11-18,66.0,53.1,43.0,57.0,45.9,31.0,100,78,54,29.98,29.83,5,1,17,0.18
2013-11-19,55.0,42.3,35.0,32.0,27.7,23.0,77,58,29,30.16,29.97,3,0,7,0.04
2013-11-20,49.0,38.9,32.0,31.0,28.0,26.0,82,66,44,30.34,30.16,1,0,4,0.00
2013-11-21,46.0,42.0,39.0,46.0,39.3,31.0,100,91,74,30.40,30.29,0,0,0,0.21
2013-11-22,62.0,52.4,45.0,60.0,52.0,45.0,100,99,89,30.33,30.10,2,0,9,0.13
2013-11-23,54.0,45.3,31.0,54.0,40.5,-99.9,100,86,50,30.14,30.05,6,1,14,0.01
2013-11-24,39.0,27.0,21.0,24.0,12.6,5.0,78,57,28,30.35,30.12,4,1,9,0.00
2013-11-25,40.0,28.2,19.0,22.0,13.0,9.0,80,55,30,30.37,30.18,1,0,4,0.00
2013-11-26,40.0,35.4,28.0,40.0,34.8,24.0,100,98,77,30.18,29.58,0,0,3,7.21
2013-11-27,41.0,30.2,21.0,41.0,28.2,17.0,100,93,74,30.07,29.53,7,2,13,0.49
2013-11-28,43.0,28.0,16.0,26.0,19.9,14.0,95,75,36,30.34,30.07,2,0,6,0.30
2013-11-29,52.0,34.8,23.0,30.0,25.1,22.0,100,72,38,30.48,30.33,0,0,2,0.00
2013-11-30,44.0,33.4,26.0,27.0,23.1,-99.9,89,68,47,30.49,30.24,1,0,4,0.00
2013-12-1,59.0,37.2,25.0,41.0,31.1,24.0,97,80,50,30.24,29.94,0,0,5,0.00
2013-12-2,56.0,40.4,29.0,43.0,37.0,29.0,100,89,62,29.94,29.73,1,0,5,0.00
2013-12-3,53.0,46.9,42.0,50.0,46.0,42.0,100,97,86,29.90,29.77,2,0,7,7.17
2013-12-4,61.0,52.9,48.0,56.0,52.0,48.0,100,97,82,30.01,29.89,4,0,10,0.01
2013-12-5,65.0,59.1,56.0,63.0,58.8,56.0,100,99,89,30.05,29.96,3,0,8,0.60
2013-12-6,65.0,62.4,50.0,64.0,62.1,50.0,100,99,93,30.02,29.92,5,1,14,1.16
2013-12-7,52.0,44.7,38.0,50.0,42.3,-99.9,100,94,82,30.30,29.98,2,0,7,0.72
2013-12-8,41.0,35.4,32.0,41.0,35.4,32.0,100,100,100,30.29,30.12,1,0,3,7.40
2013-12-9,52.0,45.4,35.0,52.0,45.4,35.0,100,100,100,30.13,29.96,3,0,10,1.15
2013-12-10,47.0,39.6,26.0,47.0,37.7,23.0,100,93,78,30.22,29.83,4,0,16,0.21
2013-12-11,45.0,31.4,21.0,30.0,23.9,20.0,99,77,37,30.34,30.17,0,0,2,0.05
2013-12-12,39.0,30.0,25.0,24.0,19.6,12.0,88,67,46,30.30,30.18,3,0,8,0.00
2013-12-13,47.0,32.1,19.0,26.0,20.0,15.0,90,63,38,30.26,30.12,1,0,3,0.00
2013-12-14,40.0,36.0,33.0,40.0,32.5,-99.9,100,90,68,30.15,29.70,1,0,2,0.91
2013-12-15,45.0,35.1,27.0,42.0,33.6,26.0,100,94,68,30.02,29.66,3,1,10,7.59
2013-12-16,51.0,36.2,22.0,36.0,27.6,22.0,100,75,39,30.09,29.99,1,0,5,7.59
2013-12-17,60.0,43.1,30.0,38.0,30.2,26.0,91,63,31,30.07,29.88,3,0,10,0.00
2013-12-18,47.0,34.2,26.0,26.0,19.2,12.0,84,57,34,30.21,29.99,2,0,6,0.00
2013-12-19,60.0,41.1,26.0,31.0,25.2,19.0,83,56,29,30.22,30.11,2,0,10,0.00
2013-12-20,60.0,49.0,42.0,47.0,35.5,26.0,91,61,35,30.16,30.07,3,1,9,0.00
2013-12-21,61.0,54.7,51.0,61.0,53.0,-99.9,100,97,91,30.09,29.94,2,0,13,0.64
2013-12-22,62.0,57.1,54.0,62.0,57.1,54.0,100,100,98,30.03,29.91,4,1,17,2.54
2013-12-23,54.0,46.7,34.0,54.0,46.4,32.0,100,99,96,30.12,29.98,2,0,7,0.75
2013-12-24,39.0,29.3,21.0,32.0,25.2,16.0,99,85,64,30.27,30.10,3,1,8,0.02
2013-12-25,37.0,25.3,16.0,21.0,17.2,15.0,100,73,44,30.37,30.22,1,0,3,0.00
2013-12-26,49.0,30.3,20.0,31.0,22.9,17.0,92,75,45,30.26,30.14,1,0,5,0.00
2013-12-27,49.0,33.5,22.0,30.0,25.9,22.0,100,77,45,30.35,30.24,0,0,3,0.00
2013-12-28,40.0,31.7,23.0,38.0,28.4,-99.9,100,91,72,30.33,30.03,1,0,3,0.25
2013-12-29,50.0,39.5,35.0,49.0,39.2,35.0,100,99,92,30.03,29.74,1,0,6,1.11
2013-12-30,44.0,35.8,32.0,42.0,35.2,32.0,100,98,90,30.05,29.89,0,0,3,0.01
2013-12-31,42.0,31.5,27.0,33.0,27.1,20.0,100,85,63,30.27,30.03,2,0,9,0.01
2014-1-1,43.0,32.7,24.0,31.0,26.6,22.0,100,80,50,30.27,30.03,2,0,8,0.01
2014-1-2,44.0,35.7,22.0,44.0,33.9,14.0,100,93,81,30.03,29.57,3,1,11,0.06